createdAt,value
2023-01-08T00:01:14.917Z,99348.38
2023-01-08T00:03:43.028Z,99367.97
2023-01-08T00:06:15.451Z,99333.91
2023-01-08T00:08:45.055Z,99330.47
2023-01-08T00:11:13.386Z,99364.19
2023-01-08T00:13:41.938Z,99375.34
2023-01-08T00:16:12.428Z,99374.47
2023-01-08T00:18:40.559Z,99352.59
2023-01-08T00:21:08.914Z,99361.03
2023-01-08T00:23:38.071Z,99362.88
2023-01-08T00:26:10.094Z,99366.41
2023-01-08T00:28:39.270Z,99359.84
2023-01-08T00:31:07.965Z,99386.25
2023-01-08T00:33:37.523Z,99387.25
2023-01-08T00:36:08.822Z,99370.94
2023-01-08T00:38:36.779Z,99409.53
2023-01-08T00:41:05.895Z,99401.47
2023-01-08T00:43:35.292Z,99363.78
2023-01-08T00:46:03.282Z,99367.88
2023-01-08T00:48:31.353Z,99402.13
2023-01-08T00:50:59.191Z,99392.00
2023-01-08T00:53:27.104Z,99382.84
2023-01-08T00:56:02.102Z,99365.16
2023-01-08T00:58:30.266Z,99376.81
2023-01-08T01:01:00.362Z,99390.31
2023-01-08T01:03:28.927Z,99396.22
2023-01-08T01:06:02.818Z,99352.31
2023-01-08T01:08:31.128Z,99321.25
2023-01-08T01:10:59.019Z,99384.19
2023-01-08T01:13:26.857Z,99343.66
2023-01-08T01:16:03.958Z,99377.66
2023-01-08T01:18:32.582Z,99352.97
2023-01-08T01:21:00.560Z,99344.47
2023-01-08T01:23:28.970Z,99345.41
2023-01-08T01:25:56.715Z,99348.16
2023-01-08T01:28:24.686Z,99336.88
2023-01-08T01:30:57.348Z,99342.19
2023-01-08T01:33:26.597Z,99343.91
2023-01-08T01:36:02.299Z,99332.81
2023-01-08T01:38:30.615Z,99352.16
2023-01-08T01:40:58.647Z,99326.88
2023-01-08T01:43:37.190Z,99354.59
2023-01-08T01:46:05.975Z,99345.88
2023-01-08T01:48:35.537Z,99365.31
2023-01-08T01:51:04.218Z,99349.56
2023-01-08T01:53:35.818Z,99349.47
2023-01-08T01:56:05.666Z,99352.88
2023-01-08T01:58:33.845Z,99349.66
2023-01-08T02:01:05.601Z,99336.88
2023-01-08T02:03:37.554Z,99339.22
2023-01-08T02:06:17.616Z,99333.81
2023-01-08T02:08:56.345Z,99335.78
2023-01-08T02:11:31.630Z,99349.22
2023-01-08T02:14:06.421Z,99314.66
2023-01-08T02:16:41.413Z,99331.28
2023-01-08T02:19:22.007Z,99337.84
2023-01-08T02:22:04.101Z,99353.81
2023-01-08T02:24:44.608Z,99311.06
2023-01-08T02:27:16.065Z,99294.53
2023-01-08T02:29:45.254Z,99319.09
2023-01-08T02:32:13.078Z,99338.91
2023-01-08T02:34:41.500Z,99325.03
2023-01-08T02:37:10.884Z,99333.41
2023-01-08T02:39:57.991Z,99345.69
2023-01-08T02:42:36.521Z,99347.28
2023-01-08T02:45:11.626Z,99315.69
2023-01-08T02:47:44.876Z,99350.53
2023-01-08T02:50:21.364Z,99352.59
2023-01-08T02:52:56.975Z,99362.72
2023-01-08T02:55:26.551Z,99340.94
2023-01-08T02:57:56.480Z,99317.50
2023-01-08T03:00:25.052Z,99333.59
2023-01-08T03:03:01.682Z,99326.19
2023-01-08T03:05:30.553Z,99308.91
2023-01-08T03:07:58.752Z,99304.91
2023-01-08T03:10:30.005Z,99306.75
2023-01-08T03:13:02.720Z,99307.56
2023-01-08T03:15:35.777Z,99289.31
2023-01-08T03:18:10.951Z,99312.78
2023-01-08T03:20:40.558Z,99306.44
2023-01-08T03:23:12.135Z,99314.88
2023-01-08T03:25:43.914Z,99266.88
2023-01-08T03:28:17.696Z,99282.13
2023-01-08T03:30:48.735Z,99293.88
2023-01-08T03:33:18.668Z,99301.09
2023-01-08T03:35:51.637Z,99299.50
2023-01-08T03:38:24.147Z,99300.13
2023-01-08T03:40:56.653Z,99300.66
2023-01-08T03:43:26.287Z,99304.03
2023-01-08T03:45:59.740Z,99309.09
2023-01-08T03:48:29.602Z,99306.56
2023-01-08T03:50:57.656Z,99311.22
2023-01-08T03:53:26.289Z,99303.06
2023-01-08T03:55:54.266Z,99308.81
2023-01-08T03:58:22.306Z,99317.66
2023-01-08T04:00:53.219Z,99326.09
2023-01-08T04:03:21.241Z,99316.91
2023-01-08T04:05:49.142Z,99307.25
2023-01-08T04:08:17.547Z,99324.84
2023-01-08T04:10:45.422Z,99300.44
2023-01-08T04:13:13.152Z,99300.94
2023-01-08T04:15:41.042Z,99305.16
2023-01-08T04:18:10.665Z,99296.78
2023-01-08T04:20:38.555Z,99295.16
2023-01-08T04:23:06.787Z,99269.66
2023-01-08T04:25:34.672Z,99301.28
2023-01-08T04:28:02.559Z,99252.88
2023-01-08T04:30:30.378Z,99302.97
2023-01-08T04:32:58.762Z,99271.63
2023-01-08T04:35:28.133Z,99309.22
2023-01-08T04:37:56.497Z,99293.59
2023-01-08T04:40:24.403Z,99282.56
2023-01-08T04:42:52.308Z,99265.75
2023-01-08T04:45:21.101Z,99258.50
2023-01-08T04:47:49.197Z,99290.69
2023-01-08T04:50:17.165Z,99271.75
2023-01-08T04:52:47.015Z,99289.22
2023-01-08T04:55:15.050Z,99290.59
2023-01-08T04:57:43.235Z,99283.44
2023-01-08T05:00:12.613Z,99281.50
2023-01-08T05:02:40.880Z,99290.03
2023-01-08T05:05:09.211Z,99262.53
2023-01-08T05:07:37.544Z,99293.13
2023-01-08T05:10:08.316Z,99284.00
2023-01-08T05:12:36.151Z,99276.56
2023-01-08T05:15:04.617Z,99275.75
2023-01-08T05:17:32.395Z,99271.38
2023-01-08T05:20:00.335Z,99265.53
2023-01-08T05:22:29.064Z,99248.09
2023-01-08T05:24:56.869Z,99266.81
2023-01-08T05:27:26.269Z,99256.59
2023-01-08T05:29:53.995Z,99280.59
2023-01-08T05:32:21.799Z,99274.03
2023-01-08T05:34:50.484Z,99232.13
2023-01-08T05:37:18.879Z,99258.56
2023-01-08T05:39:46.714Z,99223.50
2023-01-08T05:42:14.467Z,99274.03
2023-01-08T05:44:43.700Z,99254.28
2023-01-08T05:47:11.778Z,99273.72
2023-01-08T05:49:39.519Z,99269.03
2023-01-08T05:52:07.777Z,99280.50
2023-01-08T05:54:35.672Z,99279.13
2023-01-08T05:57:03.444Z,99277.84
2023-01-08T05:59:31.735Z,99285.09
2023-01-08T06:02:01.271Z,99280.03
2023-01-08T06:04:29.282Z,99281.19
2023-01-08T06:06:57.645Z,99245.00
2023-01-08T06:09:25.572Z,99275.78
2023-01-08T06:11:53.909Z,99260.50
2023-01-08T06:14:22.314Z,99275.19
2023-01-08T06:16:50.131Z,99257.19
2023-01-08T06:19:19.472Z,99269.59
2023-01-08T06:21:47.681Z,99271.88
2023-01-08T06:24:15.492Z,99217.88
2023-01-08T06:26:43.364Z,99255.91
2023-01-08T06:29:11.769Z,99257.63
2023-01-08T06:31:39.751Z,99258.66
2023-01-08T06:34:07.580Z,99255.22
2023-01-08T06:36:37.285Z,99242.00
2023-01-08T06:39:06.729Z,99234.53
2023-01-08T06:41:34.852Z,99238.31
2023-01-08T06:44:03.261Z,99231.56
2023-01-08T06:46:31.785Z,99258.44
2023-01-08T06:48:59.688Z,99222.72
2023-01-08T06:51:28.009Z,99249.59
2023-01-08T06:53:57.202Z,99271.28
2023-01-08T06:56:25.133Z,99265.78
2023-01-08T06:58:53.671Z,99238.78
2023-01-08T07:01:23.079Z,99226.34
2023-01-08T07:03:50.907Z,99258.88
2023-01-08T07:06:21.404Z,99247.63
2023-01-08T07:08:49.907Z,99259.69
2023-01-08T07:11:19.067Z,99229.03
2023-01-08T07:13:47.419Z,99249.72
2023-01-08T07:16:16.310Z,99188.34
2023-01-08T07:18:44.901Z,99245.78
2023-01-08T07:21:13.642Z,99257.97
2023-01-08T07:23:42.018Z,99247.38
2023-01-08T07:26:09.943Z,99242.22
2023-01-08T07:28:39.847Z,99240.41
2023-01-08T07:31:07.848Z,99233.59
2023-01-08T07:33:36.360Z,99231.31
2023-01-08T07:36:04.750Z,99222.34
2023-01-08T07:38:32.600Z,99226.47
2023-01-08T07:41:00.387Z,99234.97
2023-01-08T07:43:30.043Z,99236.81
2023-01-08T07:45:59.312Z,99200.53
2023-01-08T07:48:26.980Z,99235.44
2023-01-08T07:50:54.762Z,99234.38
2023-01-08T07:53:22.455Z,99229.44
2023-01-08T07:55:50.147Z,99223.13
2023-01-08T07:58:18.299Z,99222.66
2023-01-08T08:00:48.481Z,99222.66
2023-01-08T08:03:17.741Z,99233.56
2023-01-08T08:05:46.140Z,99208.31
2023-01-08T08:08:15.025Z,99223.25
2023-01-08T08:10:43.796Z,99227.72
2023-01-08T08:13:12.698Z,99233.78
2023-01-08T08:15:41.244Z,99229.56
2023-01-08T08:18:09.868Z,99222.66
2023-01-08T08:20:40.064Z,99225.06
2023-01-08T08:23:09.718Z,99218.50
2023-01-08T08:25:38.169Z,99210.69
2023-01-08T08:28:06.883Z,99205.75
2023-01-08T08:30:36.550Z,99215.72
2023-01-08T08:33:06.392Z,99206.50
2023-01-08T08:35:35.573Z,99205.25
2023-01-08T08:38:04.974Z,99201.34
2023-01-08T08:40:32.975Z,99197.69
2023-01-08T08:43:02.547Z,99192.16
2023-01-08T08:45:30.647Z,99193.75
2023-01-08T08:47:58.370Z,99199.03
2023-01-08T08:50:26.686Z,99196.66
2023-01-08T08:52:59.495Z,99189.16
2023-01-08T08:55:29.189Z,99186.06
2023-01-08T08:58:03.858Z,99194.22
2023-01-08T09:00:32.410Z,99180.78
2023-01-08T09:03:00.232Z,99184.22
2023-01-08T09:05:28.670Z,99185.47
2023-01-08T09:07:57.187Z,99179.38
2023-01-08T09:10:25.231Z,99187.91
2023-01-08T09:12:54.948Z,99184.69
2023-01-08T09:15:22.781Z,99176.75
2023-01-08T09:17:55.674Z,99181.00
2023-01-08T09:20:25.062Z,99157.91
2023-01-08T09:22:52.961Z,99178.34
2023-01-08T09:25:20.892Z,99176.28
2023-01-08T09:27:48.951Z,99168.09
2023-01-08T09:30:18.188Z,99165.22
2023-01-08T09:32:45.915Z,99168.44
2023-01-08T09:35:14.179Z,99146.84
2023-01-08T09:37:41.975Z,99161.06
2023-01-08T09:40:16.825Z,99157.16
2023-01-08T09:42:44.750Z,99167.50
2023-01-08T09:45:28.743Z,99169.28
2023-01-08T09:47:59.237Z,99171.47
2023-01-08T09:50:29.295Z,99167.06
2023-01-08T09:52:58.476Z,99142.25
2023-01-08T09:55:26.823Z,99164.59
2023-01-08T09:57:55.468Z,99156.56
2023-01-08T10:00:29.053Z,99165.00
2023-01-08T10:02:58.452Z,99143.88
2023-01-08T10:05:27.991Z,99159.47
2023-01-08T10:07:56.503Z,99150.72
2023-01-08T10:10:30.119Z,99160.25
2023-01-08T10:12:58.103Z,99130.19
2023-01-08T10:15:27.395Z,99143.34
2023-01-08T10:18:01.898Z,99148.16
2023-01-08T10:20:29.908Z,99144.47
2023-01-08T10:22:57.819Z,99147.44
2023-01-08T10:25:28.734Z,99152.97
2023-01-08T10:28:00.267Z,99152.50
2023-01-08T10:30:41.669Z,99149.38
2023-01-08T10:33:15.887Z,99152.00
2023-01-08T10:35:44.601Z,99129.16
2023-01-08T10:38:26.939Z,99108.19
2023-01-08T10:40:55.119Z,99129.53
2023-01-08T10:43:28.670Z,99133.31
2023-01-08T10:46:01.640Z,99109.31
2023-01-08T10:48:34.880Z,99122.47
2023-01-08T10:51:08.378Z,99119.28
2023-01-08T10:53:36.119Z,99118.00
2023-01-08T10:56:05.638Z,99124.09
2023-01-08T10:58:42.883Z,99123.75
2023-01-08T11:01:17.436Z,99121.91
2023-01-08T11:03:50.701Z,99119.81
2023-01-08T11:06:22.650Z,99127.84
2023-01-08T11:08:52.577Z,99124.38
2023-01-08T11:11:21.086Z,99116.22
2023-01-08T11:13:58.769Z,99126.16
2023-01-08T11:16:36.740Z,99101.84
2023-01-08T11:19:05.910Z,99098.72
2023-01-08T11:21:36.143Z,99107.84
2023-01-08T11:24:13.446Z,99078.69
2023-01-08T11:26:45.027Z,99105.44
2023-01-08T11:29:17.164Z,99108.91
2023-01-08T11:31:53.700Z,99078.75
2023-01-08T11:34:27.295Z,99070.97
2023-01-08T11:37:00.480Z,99103.06
2023-01-08T11:39:28.873Z,99083.78
2023-01-08T11:42:22.116Z,99090.75
2023-01-08T11:45:06.659Z,99092.94
2023-01-08T11:47:52.648Z,99084.91
2023-01-08T11:50:23.990Z,99066.22
2023-01-08T11:53:07.478Z,99056.63
2023-01-08T11:55:47.863Z,99065.31
2023-01-08T11:58:35.033Z,99065.31
2023-01-08T12:01:27.159Z,99067.25
2023-01-08T12:04:17.253Z,99046.25
2023-01-08T12:06:53.959Z,99061.28
2023-01-08T12:09:36.829Z,99052.63
2023-01-08T12:12:16.331Z,99053.97
2023-01-08T12:14:56.382Z,99059.03
2023-01-08T12:17:58.693Z,99048.75
2023-01-08T12:20:36.761Z,99049.84
2023-01-08T12:23:16.549Z,99056.50
2023-01-08T12:25:58.459Z,99036.72
2023-01-08T12:29:00.271Z,99048.56
2023-01-08T12:32:01.845Z,99026.97
2023-01-08T12:34:43.307Z,99039.81
2023-01-08T12:37:18.212Z,99036.09
2023-01-08T12:39:51.446Z,99027.03
2023-01-08T12:42:24.752Z,98997.09
2023-01-08T12:44:55.687Z,99009.50
2023-01-08T12:47:28.844Z,99035.13
2023-01-08T12:50:06.577Z,98959.72
2023-01-08T12:52:41.885Z,99014.50
2023-01-08T12:55:31.608Z,99012.38
2023-01-08T12:58:08.142Z,99008.66
2023-01-08T13:00:41.925Z,99003.09
2023-01-08T13:03:16.141Z,98993.81
2023-01-08T13:05:44.981Z,98994.63
2023-01-08T13:08:33.465Z,98955.72
2023-01-08T13:11:02.473Z,98940.56
2023-01-08T13:13:32.794Z,98975.28
2023-01-08T13:16:18.922Z,98970.28
2023-01-08T13:18:57.556Z,98971.41
2023-01-08T13:21:31.959Z,98950.94
2023-01-08T13:24:26.785Z,98953.63
2023-01-08T13:26:55.289Z,98947.03
2023-01-08T13:29:37.912Z,98930.31
2023-01-08T13:32:06.568Z,98934.13
2023-01-08T13:34:40.560Z,98929.34
2023-01-08T13:37:16.477Z,98922.44
2023-01-08T13:39:52.326Z,98916.41
2023-01-08T13:42:29.087Z,98907.09
2023-01-08T13:45:02.202Z,98908.75
2023-01-08T13:47:33.577Z,98910.34
2023-01-08T13:50:04.217Z,98910.59
2023-01-08T13:52:43.216Z,98895.50
2023-01-08T13:55:19.195Z,98898.16
2023-01-08T13:57:50.870Z,98873.16
2023-01-08T14:00:23.631Z,98881.94
2023-01-08T14:02:52.169Z,98884.09
2023-01-08T14:05:23.368Z,98871.03
2023-01-08T14:07:51.436Z,98880.56
2023-01-08T14:10:21.870Z,98861.16
2023-01-08T14:12:51.351Z,98877.97
2023-01-08T14:15:24.293Z,98878.97
2023-01-08T14:17:52.787Z,98827.56
2023-01-08T14:20:34.310Z,98850.81
2023-01-08T14:23:04.522Z,98834.91
2023-01-08T14:25:33.762Z,98831.16
2023-01-08T14:28:04.189Z,98829.59
2023-01-08T14:30:32.954Z,98827.03
2023-01-08T14:33:01.871Z,98790.97
2023-01-08T14:35:34.889Z,98842.66
2023-01-08T14:38:05.713Z,98835.41
2023-01-08T14:40:38.483Z,98855.69
2023-01-08T14:43:10.555Z,98850.63
2023-01-08T14:45:41.418Z,98841.88
2023-01-08T14:48:16.546Z,98844.78
2023-01-08T14:50:46.534Z,98844.00
2023-01-08T14:53:25.322Z,98836.56
2023-01-08T14:55:58.296Z,98841.34
2023-01-08T14:58:28.000Z,98839.94
2023-01-08T15:01:00.530Z,98832.75
2023-01-08T15:03:32.176Z,98807.41
2023-01-08T15:06:00.964Z,98841.75
2023-01-08T15:08:34.527Z,98835.91
2023-01-08T15:11:07.483Z,98813.19
2023-01-08T15:13:38.139Z,98844.19
2023-01-08T15:16:10.364Z,98843.91
2023-01-08T15:18:44.488Z,98842.84
2023-01-08T15:21:18.767Z,98840.22
2023-01-08T15:23:49.687Z,98834.91
2023-01-08T15:26:20.045Z,98833.84
2023-01-08T15:28:52.542Z,98825.63
2023-01-08T15:31:28.845Z,98814.47
2023-01-08T15:33:57.086Z,98815.25
2023-01-08T15:36:24.819Z,98806.25
2023-01-08T15:38:53.806Z,98814.75
2023-01-08T15:41:41.899Z,98793.78
2023-01-08T15:44:12.822Z,98783.13
2023-01-08T15:46:40.619Z,98788.75
2023-01-08T15:49:08.460Z,98785.59
2023-01-08T15:51:38.507Z,98787.19
2023-01-08T15:54:06.578Z,98781.63
2023-01-08T15:56:35.869Z,98726.53
2023-01-08T15:59:03.918Z,98760.66
2023-01-08T16:01:33.711Z,98774.47
2023-01-08T16:04:01.866Z,98769.19
2023-01-08T16:06:29.768Z,98771.81
2023-01-08T16:09:00.344Z,98769.44
2023-01-08T16:11:28.187Z,98762.28
2023-01-08T16:13:57.805Z,98702.16
2023-01-08T16:16:25.780Z,98733.59
2023-01-08T16:18:53.667Z,98754.59
2023-01-08T16:21:21.821Z,98753.53
2023-01-08T16:23:49.705Z,98709.66
2023-01-08T16:26:17.855Z,98727.75
2023-01-08T16:34:26.458Z,98736.53
2023-01-08T16:39:43.905Z,98718.69
2023-01-08T16:42:12.086Z,98719.81
2023-01-08T16:44:41.147Z,98707.03
2023-01-08T16:47:10.756Z,98681.19
2023-01-08T16:49:40.820Z,98725.03
2023-01-08T16:52:10.972Z,98714.44
2023-01-08T16:54:39.130Z,98707.22
2023-01-08T16:57:07.046Z,98685.88
2023-01-08T16:59:35.695Z,98679.56
2023-01-08T17:02:03.620Z,98706.41
2023-01-08T17:04:33.538Z,98688.41
2023-01-08T17:07:01.639Z,98691.59
2023-01-08T17:09:29.500Z,98671.84
2023-01-08T17:11:57.451Z,98685.16
2023-01-08T17:14:25.940Z,98689.44
2023-01-08T17:16:53.697Z,98684.13
2023-01-08T17:19:24.458Z,98651.66
2023-01-08T17:21:54.512Z,98674.34
2023-01-08T17:24:22.446Z,98635.75
2023-01-08T17:26:50.560Z,98653.03
2023-01-08T17:29:18.911Z,98639.25
2023-01-08T17:31:46.808Z,98636.88
2023-01-08T17:34:15.174Z,98657.38
2023-01-08T17:36:43.713Z,98600.19
2023-01-08T17:39:13.763Z,98630.00
2023-01-08T17:41:59.667Z,98595.69
2023-01-08T17:44:27.872Z,98630.09
2023-01-08T17:46:55.888Z,98612.50
2023-01-08T17:49:24.413Z,98602.16
2023-01-08T17:51:53.393Z,98568.16
2023-01-08T17:54:22.623Z,98605.97
2023-01-08T17:56:51.479Z,98614.72
2023-01-08T17:59:20.656Z,98544.56
2023-01-08T18:01:49.521Z,98612.38
2023-01-08T18:04:17.905Z,98598.28
2023-01-08T18:06:46.490Z,98581.28
2023-01-08T18:09:14.404Z,98567.69
2023-01-08T18:11:44.959Z,98598.50
2023-01-08T18:14:14.704Z,98612.59
2023-01-08T18:16:45.634Z,98613.88
2023-01-08T18:19:14.409Z,98595.03
2023-01-08T18:21:42.623Z,98614.69
2023-01-08T18:24:11.063Z,98613.09
2023-01-08T18:26:38.919Z,98581.72
2023-01-08T18:29:08.487Z,98588.16
2023-01-08T18:31:37.031Z,98555.47
2023-01-08T18:34:05.012Z,98604.09
2023-01-08T18:36:32.950Z,98595.09
2023-01-08T18:39:01.464Z,98579.69
2023-01-08T18:41:49.151Z,98584.50
2023-01-08T18:44:19.870Z,98573.59
2023-01-08T18:46:48.259Z,98577.91
2023-01-08T18:49:16.942Z,98571.00
2023-01-08T18:51:44.750Z,98577.63
2023-01-08T18:54:13.093Z,98567.03
2023-01-08T18:56:40.996Z,98569.66
2023-01-08T18:59:09.219Z,98556.44
2023-01-08T19:01:38.830Z,98513.41
2023-01-08T19:04:07.422Z,98560.13
2023-01-08T19:06:36.327Z,98539.44
2023-01-08T19:09:04.593Z,98556.94
2023-01-08T19:11:32.634Z,98539.13
2023-01-08T19:14:01.035Z,98531.47
2023-01-08T19:16:29.076Z,98536.22
2023-01-08T19:18:58.763Z,98531.97
2023-01-08T19:21:27.443Z,98540.50
2023-01-08T19:23:55.527Z,98516.56
2023-01-08T19:26:23.469Z,98531.97
2023-01-08T19:28:52.028Z,98530.41
2023-01-08T19:31:19.974Z,98528.31
2023-01-08T19:33:47.918Z,98509.94
2023-01-08T19:36:20.209Z,98451.28
2023-01-08T19:38:48.463Z,98501.81
2023-01-08T19:41:33.483Z,98476.03
2023-01-08T19:44:01.403Z,98491.47
2023-01-08T19:46:29.749Z,98495.44
2023-01-08T19:48:58.621Z,98459.56
2023-01-08T19:51:29.252Z,98444.47
2023-01-08T19:53:58.893Z,98484.84
2023-01-08T19:56:27.229Z,98435.69
2023-01-08T19:58:56.472Z,98486.44
2023-01-08T20:01:27.761Z,98468.97
2023-01-08T20:03:56.762Z,98432.03
2023-01-08T20:06:28.803Z,98472.34
2023-01-08T20:08:59.100Z,98467.38
2023-01-08T20:11:28.512Z,98435.22
2023-01-08T20:14:00.408Z,98394.38
2023-01-08T20:16:29.794Z,98438.44
2023-01-08T20:18:58.244Z,98415.34
2023-01-08T20:21:27.595Z,98453.31
2023-01-08T20:23:58.700Z,98460.47
2023-01-08T20:26:28.488Z,98456.75
2023-01-08T20:28:58.577Z,98442.47
2023-01-08T20:31:30.669Z,98444.84
2023-01-08T20:33:59.750Z,98454.66
2023-01-08T20:36:31.941Z,98457.03
2023-01-08T20:39:02.763Z,98461.81
2023-01-08T20:41:30.816Z,98456.00
2023-01-08T20:43:59.202Z,98459.66
2023-01-08T20:46:29.776Z,98417.16
2023-01-08T20:48:59.848Z,98427.31
2023-01-08T20:51:30.278Z,98437.16
2023-01-08T20:53:58.385Z,98404.78
2023-01-08T20:56:26.302Z,98431.59
2023-01-08T20:58:54.870Z,98442.97
2023-01-08T21:01:25.927Z,98413.25
2023-01-08T21:03:56.965Z,98444.03
2023-01-08T21:06:27.224Z,98406.59
2023-01-08T21:08:58.396Z,98442.72
2023-01-08T21:11:27.115Z,98448.78
2023-01-08T21:13:56.794Z,98436.91
2023-01-08T21:16:27.555Z,98471.50
2023-01-08T21:18:55.662Z,98485.72
2023-01-08T21:21:26.936Z,98477.69
2023-01-08T21:23:57.400Z,98479.84
2023-01-08T21:26:26.161Z,98487.22
2023-01-08T21:28:54.208Z,98456.88
2023-01-08T21:31:25.372Z,98467.19
2023-01-08T21:33:53.456Z,98482.78
2023-01-08T21:36:26.991Z,98443.75
2023-01-08T21:38:57.267Z,98472.44
2023-01-08T21:41:45.340Z,98466.16
2023-01-08T21:44:31.219Z,98484.72
2023-01-08T21:47:00.591Z,98473.25
2023-01-08T21:49:28.978Z,98442.94
2023-01-08T21:52:15.393Z,98458.59
2023-01-08T21:54:44.568Z,98480.13
2023-01-08T21:57:12.616Z,98457.22
2023-01-08T21:59:41.030Z,98468.06
2023-01-08T22:02:08.930Z,98482.91
2023-01-08T22:04:37.266Z,98420.69
2023-01-08T22:07:05.710Z,98458.91
2023-01-08T22:09:33.552Z,98458.41
2023-01-08T22:12:02.819Z,98426.00
2023-01-08T22:14:31.363Z,98483.81
2023-01-08T22:16:59.270Z,98493.78
2023-01-08T22:19:27.103Z,98464.03
2023-01-08T22:21:55.653Z,98433.22
2023-01-08T22:24:23.485Z,98444.22
2023-01-08T22:26:51.504Z,98437.34
2023-01-08T22:29:22.961Z,98465.47
2023-01-08T22:31:50.842Z,98465.16
2023-01-08T22:34:19.067Z,98427.03
2023-01-08T22:36:50.959Z,98430.22
2023-01-08T22:39:19.300Z,98461.03
2023-01-08T22:41:47.111Z,98487.59
2023-01-08T22:44:15.307Z,98478.50
2023-01-08T22:46:44.640Z,98499.09
2023-01-08T22:49:13.517Z,98502.78
2023-01-08T22:51:41.885Z,98503.19
2023-01-08T22:54:13.872Z,98501.94
2023-01-08T22:56:42.623Z,98511.75
2023-01-08T22:59:10.571Z,98512.81
2023-01-08T23:01:38.513Z,98499.97
2023-01-08T23:04:08.195Z,98515.94
2023-01-08T23:06:36.071Z,98528.81
2023-01-08T23:09:03.924Z,98531.78
2023-01-08T23:11:32.544Z,98489.13
2023-01-08T23:14:01.890Z,98535.63
2023-01-08T23:16:30.030Z,98542.00
2023-01-08T23:18:58.650Z,98480.53
2023-01-08T23:21:28.475Z,98523.66
2023-01-08T23:23:56.265Z,98524.44
2023-01-08T23:26:26.847Z,98539.56
2023-01-08T23:28:56.060Z,98522.25
2023-01-08T23:31:26.886Z,98529.41
2023-01-08T23:33:54.836Z,98510.63
2023-01-08T23:36:23.736Z,98516.41
2023-01-08T23:38:55.328Z,98536.31
2023-01-08T23:41:25.961Z,98541.25
2023-01-08T23:43:54.776Z,98518.63
2023-01-08T23:46:23.149Z,98513.28
2023-01-08T23:48:52.240Z,98549.91
2023-01-08T23:51:20.023Z,98539.34
2023-01-08T23:53:48.364Z,98529.75
2023-01-08T23:56:17.854Z,98527.03
2023-01-08T23:58:47.737Z,98484.59
